createdAt,value
2018-09-21T00:00:27.290Z,76.67
2018-09-21T00:01:27.487Z,76.48
2018-09-21T00:02:27.655Z,76.86
2018-09-21T00:03:27.838Z,76.67
2018-09-21T00:04:28.009Z,77.82
2018-09-21T00:06:28.369Z,78.20
2018-09-21T00:07:28.546Z,78.30
2018-09-21T00:08:28.724Z,77.73
2018-09-21T00:09:28.909Z,77.34
2018-09-21T00:10:29.083Z,77.34
2018-09-21T00:12:29.436Z,76.86
2018-09-21T00:13:29.616Z,77.63
2018-09-21T00:14:29.793Z,78.11
2018-09-21T00:15:29.977Z,78.59
2018-09-21T00:16:30.166Z,78.74
2018-09-21T00:17:30.350Z,79.60
2018-09-21T00:18:30.525Z,79.99
2018-09-21T00:19:30.699Z,79.99
2018-09-21T00:20:30.875Z,79.60
2018-09-21T00:21:31.053Z,79.51
2018-09-21T00:22:31.236Z,78.93
2018-09-21T00:23:31.416Z,78.84
2018-09-21T00:24:31.595Z,78.93
2018-09-21T00:25:31.774Z,78.59
2018-09-21T00:26:31.951Z,79.16
2018-09-21T00:27:32.130Z,78.74
2018-09-21T00:28:32.310Z,78.59
2018-09-21T00:29:32.491Z,78.55
2018-09-21T00:30:32.667Z,80.03
2018-09-21T00:31:32.848Z,80.03
2018-09-21T00:32:33.026Z,79.16
2018-09-21T00:33:33.204Z,79.45
2018-09-21T00:34:33.387Z,79.45
2018-09-21T00:35:33.562Z,80.03
2018-09-21T00:36:33.750Z,79.45
2018-09-21T00:37:33.920Z,78.69
2018-09-21T00:38:34.102Z,78.11
2018-09-21T00:39:34.280Z,79.41
2018-09-21T00:40:34.462Z,79.55
2018-09-21T00:41:34.654Z,79.99
2018-09-21T00:42:34.817Z,79.99
2018-09-21T00:43:34.996Z,80.56
2018-09-21T00:44:35.174Z,80.41
2018-09-21T00:45:35.356Z,80.03
2018-09-21T00:46:35.538Z,80.03
2018-09-21T00:47:35.708Z,79.93
2018-09-21T00:48:35.885Z,79.83
2018-09-21T00:49:36.062Z,79.55
2018-09-21T00:50:36.246Z,79.74
2018-09-21T00:51:36.423Z,79.83
2018-09-21T00:52:36.600Z,80.12
2018-09-21T00:53:36.782Z,80.03
2018-09-21T00:54:36.967Z,79.93
2018-09-21T00:55:37.140Z,80.22
2018-09-21T00:56:37.329Z,80.41
2018-09-21T00:57:37.506Z,80.22
2018-09-21T00:58:37.677Z,80.41
2018-09-21T00:59:37.855Z,80.51
2018-09-21T01:00:38.031Z,80.03
2018-09-21T01:01:38.221Z,80.89
2018-09-21T01:02:38.386Z,81.52
2018-09-21T01:03:38.582Z,81.81
2018-09-21T01:04:38.749Z,81.81
2018-09-21T01:05:38.928Z,81.81
2018-09-21T01:06:39.115Z,82.19
2018-09-21T01:07:39.291Z,81.52
2018-09-21T01:08:39.461Z,81.71
2018-09-21T01:09:39.648Z,81.81
2018-09-21T01:10:39.831Z,81.52
2018-09-21T01:11:40.007Z,82.00
2018-09-21T01:12:40.187Z,81.90
2018-09-21T01:13:40.367Z,82.29
2018-09-21T01:14:40.547Z,82.09
2018-09-21T01:15:40.726Z,82.38
2018-09-21T01:16:40.903Z,82.38
2018-09-21T01:17:41.083Z,82.48
2018-09-21T01:18:41.262Z,81.90
2018-09-21T01:19:41.437Z,82.19
2018-09-21T01:20:41.617Z,81.71
2018-09-21T01:21:41.801Z,81.52
2018-09-21T01:22:41.968Z,81.71
2018-09-21T01:23:42.163Z,81.81
2018-09-21T01:24:42.324Z,81.95
2018-09-21T01:25:42.522Z,81.18
2018-09-21T01:26:42.689Z,81.37
2018-09-21T01:27:42.872Z,81.46
2018-09-21T01:28:43.047Z,81.27
2018-09-21T01:29:43.234Z,81.66
2018-09-21T01:30:43.406Z,81.46
2018-09-21T01:31:43.586Z,81.46
2018-09-21T01:32:43.827Z,81.66
2018-09-21T01:33:43.948Z,81.37
2018-09-21T01:34:44.126Z,81.56
2018-09-21T01:35:44.311Z,81.37
2018-09-21T01:36:44.494Z,81.85
2018-09-21T01:37:44.671Z,81.90
2018-09-21T01:38:44.856Z,82.29
2018-09-21T01:39:45.032Z,81.90
2018-09-21T01:40:45.209Z,81.71
2018-09-21T01:41:45.387Z,82.76
2018-09-21T01:42:45.569Z,82.67
2018-09-21T01:43:45.748Z,82.86
2018-09-21T01:44:45.942Z,82.57
2018-09-21T01:45:46.108Z,82.48
2018-09-21T01:46:46.283Z,82.57
2018-09-21T01:47:46.469Z,82.48
2018-09-21T01:48:46.645Z,82.48
2018-09-21T01:49:46.823Z,82.29
2018-09-21T01:50:47.012Z,82.48
2018-09-21T01:51:47.181Z,83.05
2018-09-21T01:52:47.360Z,82.57
2018-09-21T01:53:47.534Z,83.05
2018-09-21T01:54:47.722Z,83.05
2018-09-21T01:55:47.909Z,82.76
2018-09-21T01:56:48.079Z,82.67
2018-09-21T01:57:48.260Z,82.96
2018-09-21T01:58:48.439Z,82.29
2018-09-21T01:59:48.617Z,82.48
2018-09-21T02:00:48.800Z,82.38
2018-09-21T02:01:48.978Z,82.38
2018-09-21T02:02:49.154Z,82.38
2018-09-21T02:03:49.336Z,82.48
2018-09-21T02:04:49.514Z,83.05
2018-09-21T02:05:49.694Z,82.38
2018-09-21T02:06:49.873Z,82.67
2018-09-21T02:07:50.049Z,82.86
2018-09-21T02:08:50.228Z,82.96
2018-09-21T02:09:50.423Z,83.82
2018-09-21T02:10:50.597Z,83.72
2018-09-21T02:11:50.785Z,83.72
2018-09-21T02:12:50.961Z,83.92
2018-09-21T02:13:51.133Z,83.72
2018-09-21T02:14:51.313Z,83.82
2018-09-21T02:15:51.493Z,83.82
2018-09-21T02:16:51.671Z,83.15
2018-09-21T02:17:51.847Z,83.15
2018-09-21T02:18:52.030Z,82.96
2018-09-21T02:19:52.211Z,83.92
2018-09-21T02:20:52.393Z,83.92
2018-09-21T02:21:52.570Z,84.01
2018-09-21T02:22:52.753Z,83.63
2018-09-21T02:23:52.932Z,84.01
2018-09-21T02:24:53.109Z,84.45
2018-09-21T02:25:53.289Z,84.16
2018-09-21T02:26:53.467Z,84.01
2018-09-21T02:27:53.645Z,84.58
2018-09-21T02:28:53.826Z,84.06
2018-09-21T02:29:54.004Z,84.78
2018-09-21T02:30:54.184Z,84.45
2018-09-21T02:31:54.366Z,84.88
2018-09-21T02:32:54.540Z,84.11
2018-09-21T02:33:54.725Z,83.92
2018-09-21T02:34:54.905Z,84.11
2018-09-21T02:35:55.083Z,84.20
2018-09-21T02:36:55.259Z,84.01
2018-09-21T02:37:55.437Z,84.58
2018-09-21T02:38:55.619Z,84.68
2018-09-21T02:39:55.798Z,85.35
2018-09-21T02:40:55.975Z,85.50
2018-09-21T02:41:56.156Z,85.69
2018-09-21T02:42:56.347Z,85.88
2018-09-21T02:43:56.519Z,85.41
2018-09-21T02:44:56.699Z,85.88
2018-09-21T02:45:56.882Z,85.88
2018-09-21T02:46:57.055Z,85.98
2018-09-21T02:47:57.236Z,85.74
2018-09-21T02:48:57.417Z,85.74
2018-09-21T02:49:57.586Z,86.21
2018-09-21T02:50:57.771Z,86.46
2018-09-21T02:51:57.947Z,85.98
2018-09-21T02:52:58.116Z,86.08
2018-09-21T02:53:58.294Z,86.84
2018-09-21T02:54:58.471Z,86.17
2018-09-21T02:55:58.654Z,86.17
2018-09-21T02:56:58.831Z,86.27
2018-09-21T02:57:59.016Z,86.74
2018-09-21T02:58:59.201Z,87.51
2018-09-21T02:59:59.373Z,87.32
2018-09-21T03:00:59.571Z,87.80
2018-09-21T03:01:59.741Z,87.37
2018-09-21T03:02:59.911Z,87.41
2018-09-21T03:04:00.090Z,87.18
2018-09-21T03:05:00.270Z,87.95
2018-09-21T03:06:00.453Z,87.95
2018-09-21T03:07:00.631Z,87.66
2018-09-21T03:08:00.818Z,87.51
2018-09-21T03:09:00.990Z,87.08
2018-09-21T03:10:01.162Z,87.41
2018-09-21T03:11:01.354Z,86.84
2018-09-21T03:12:01.519Z,87.03
2018-09-21T03:13:01.713Z,86.94
2018-09-21T03:14:01.876Z,86.74
2018-09-21T03:15:02.051Z,86.65
2018-09-21T03:16:02.238Z,87.13
2018-09-21T03:17:02.414Z,86.94
2018-09-21T03:18:02.593Z,87.37
2018-09-21T03:19:02.770Z,87.18
2018-09-21T03:20:02.956Z,87.47
2018-09-21T03:21:03.124Z,87.51
2018-09-21T03:22:03.313Z,87.23
2018-09-21T03:23:03.488Z,87.41
2018-09-21T03:24:03.669Z,87.32
2018-09-21T03:25:03.879Z,87.32
2018-09-21T03:26:04.044Z,87.27
2018-09-21T03:27:04.216Z,87.66
2018-09-21T03:28:04.406Z,87.51
2018-09-21T03:29:04.596Z,87.70
2018-09-21T03:30:04.761Z,87.32
2018-09-21T03:31:04.944Z,87.03
2018-09-21T03:32:05.118Z,87.51
2018-09-21T03:33:05.310Z,87.27
2018-09-21T03:34:05.477Z,87.37
2018-09-21T03:35:05.668Z,88.13
2018-09-21T03:36:05.830Z,88.33
2018-09-21T03:37:06.005Z,88.43
2018-09-21T03:38:06.194Z,88.81
2018-09-21T03:39:06.364Z,88.90
2018-09-21T03:40:06.543Z,89.86
2018-09-21T03:41:06.724Z,89.53
2018-09-21T03:42:06.904Z,89.76
2018-09-21T03:43:07.077Z,89.29
2018-09-21T03:44:07.259Z,89.38
2018-09-21T03:45:07.437Z,88.81
2018-09-21T03:46:07.617Z,88.43
2018-09-21T03:47:07.794Z,87.95
2018-09-21T03:48:07.971Z,88.52
2018-09-21T03:49:08.152Z,88.04
2018-09-21T03:50:08.330Z,88.04
2018-09-21T03:51:08.510Z,88.13
2018-09-21T03:52:08.693Z,88.04
2018-09-21T03:53:08.871Z,87.95
2018-09-21T03:54:09.048Z,87.85
2018-09-21T03:55:09.230Z,88.28
2018-09-21T03:56:09.403Z,87.51
2018-09-21T03:57:09.584Z,87.76
2018-09-21T03:58:09.756Z,87.70
2018-09-21T03:59:09.949Z,87.41
2018-09-21T04:00:10.123Z,87.23
2018-09-21T04:01:10.320Z,87.51
2018-09-21T04:02:10.472Z,87.51
2018-09-21T04:03:10.651Z,87.51
2018-09-21T04:04:10.825Z,87.51
2018-09-21T04:05:11.008Z,87.41
2018-09-21T04:06:11.189Z,87.95
2018-09-21T04:07:11.379Z,87.85
2018-09-21T04:08:11.548Z,88.18
2018-09-21T04:09:11.735Z,88.18
2018-09-21T04:10:11.901Z,87.70
2018-09-21T04:11:12.083Z,87.95
2018-09-21T04:12:12.257Z,87.85
2018-09-21T04:13:12.443Z,88.33
2018-09-21T04:14:12.615Z,88.33
2018-09-21T04:15:12.799Z,88.13
2018-09-21T04:16:12.974Z,89.09
2018-09-21T04:17:13.153Z,89.09
2018-09-21T04:18:13.332Z,88.90
2018-09-21T04:19:13.515Z,88.43
2018-09-21T04:20:13.692Z,88.23
2018-09-21T04:21:13.871Z,88.09
2018-09-21T04:22:14.050Z,88.33
2018-09-21T04:23:14.329Z,88.28
2018-09-21T04:24:14.407Z,87.99
2018-09-21T04:25:14.583Z,88.28
2018-09-21T04:26:14.757Z,88.37
2018-09-21T04:27:14.941Z,87.66
2018-09-21T04:28:15.117Z,87.61
2018-09-21T04:29:15.301Z,87.47
2018-09-21T04:30:15.477Z,87.51
2018-09-21T04:31:15.652Z,88.18
2018-09-21T04:32:15.839Z,87.99
2018-09-21T04:33:16.013Z,88.09
2018-09-21T04:34:16.192Z,87.99
2018-09-21T04:35:16.370Z,88.28
2018-09-21T04:36:16.598Z,88.28
2018-09-21T04:37:16.736Z,87.90
2018-09-21T04:38:16.909Z,87.27
2018-09-21T04:39:17.089Z,87.32
2018-09-21T04:40:17.261Z,88.03
2018-09-21T04:41:17.434Z,87.37
2018-09-21T04:42:17.614Z,87.84
2018-09-21T04:43:17.793Z,87.94
2018-09-21T04:44:17.971Z,86.98
2018-09-21T04:45:18.152Z,87.65
2018-09-21T04:46:18.325Z,87.17
2018-09-21T04:47:18.504Z,86.79
2018-09-21T04:48:18.682Z,86.08
2018-09-21T04:49:18.861Z,86.46
2018-09-21T04:50:19.047Z,86.65
2018-09-21T04:51:19.222Z,87.32
2018-09-21T04:52:19.441Z,86.94
2018-09-21T04:53:19.604Z,86.46
2018-09-21T04:54:19.768Z,86.84
2018-09-21T04:55:19.936Z,86.94
2018-09-21T04:56:20.109Z,87.03
2018-09-21T04:57:20.293Z,86.94
2018-09-21T04:58:20.466Z,85.98
2018-09-21T04:59:20.646Z,86.08
2018-09-21T05:00:20.825Z,86.17
2018-09-21T05:01:21.004Z,85.41
2018-09-21T05:02:21.184Z,86.27
2018-09-21T05:03:21.370Z,85.79
2018-09-21T05:04:21.549Z,85.98
2018-09-21T05:05:21.730Z,86.17
2018-09-21T05:06:21.922Z,86.98
2018-09-21T05:07:22.100Z,86.27
2018-09-21T05:08:22.269Z,86.60
2018-09-21T05:09:22.449Z,85.93
2018-09-21T05:10:22.644Z,85.83
2018-09-21T05:11:22.811Z,86.02
2018-09-21T05:12:22.984Z,85.93
2018-09-21T05:13:23.167Z,86.69
2018-09-21T05:14:23.345Z,86.21
2018-09-21T05:15:23.521Z,85.83
2018-09-21T05:16:23.701Z,86.31
2018-09-21T05:17:23.880Z,86.50
2018-09-21T05:18:24.062Z,85.93
2018-09-21T05:19:24.239Z,86.16
2018-09-21T05:20:24.420Z,85.78
2018-09-21T05:21:24.596Z,85.68
2018-09-21T05:22:24.784Z,85.58
2018-09-21T05:23:24.974Z,84.91
2018-09-21T05:24:25.146Z,84.72
2018-09-21T05:25:25.320Z,84.72
2018-09-21T05:26:25.500Z,84.82
2018-09-21T05:27:25.698Z,84.34
2018-09-21T05:28:25.853Z,84.38
2018-09-21T05:29:26.037Z,84.00
2018-09-21T05:30:26.211Z,84.19
2018-09-21T05:31:26.392Z,84.48
2018-09-21T05:32:26.566Z,84.09
2018-09-21T05:33:26.752Z,84.19
2018-09-21T05:34:26.967Z,84.09
2018-09-21T05:35:27.104Z,84.58
2018-09-21T05:36:27.282Z,84.00
2018-09-21T05:37:27.462Z,84.00
2018-09-21T05:38:27.643Z,84.09
2018-09-21T05:39:27.828Z,84.00
2018-09-21T05:40:28.001Z,84.00
2018-09-21T05:41:28.177Z,83.61
2018-09-21T05:42:28.358Z,83.33
2018-09-21T05:43:28.537Z,83.42
2018-09-21T05:44:29.559Z,82.75
2018-09-21T05:45:28.890Z,82.65
2018-09-21T05:46:29.069Z,83.23
2018-09-21T05:47:29.248Z,82.98
2018-09-21T05:48:29.424Z,82.79
2018-09-21T05:49:29.608Z,82.51
2018-09-21T05:50:29.797Z,82.70
2018-09-21T05:51:29.970Z,82.21
2018-09-21T05:52:30.140Z,82.12
2018-09-21T05:53:30.307Z,81.84
2018-09-21T05:54:30.484Z,81.64
2018-09-21T05:55:30.664Z,81.16
2018-09-21T05:56:30.843Z,81.54
2018-09-21T05:57:31.022Z,81.20
2018-09-21T05:58:31.197Z,80.43
2018-09-21T05:59:31.395Z,79.96
2018-09-21T06:00:31.547Z,79.67
2018-09-21T06:01:31.731Z,78.94
2018-09-21T06:02:31.942Z,77.73
2018-09-21T06:03:32.091Z,75.94
2018-09-21T06:04:32.270Z,74.92
2018-09-21T06:05:32.448Z,73.42
2018-09-21T06:06:32.629Z,72.45
2018-09-21T06:07:32.809Z,71.34
2018-09-21T06:08:32.989Z,70.50
2018-09-21T06:09:33.176Z,69.15
2018-09-21T06:10:33.370Z,68.42
2018-09-21T06:11:33.545Z,67.94
2018-09-21T06:12:33.731Z,67.58
2018-09-21T06:13:33.997Z,65.95
2018-09-21T06:14:34.087Z,66.04
2018-09-21T06:15:34.291Z,65.20
2018-09-21T06:16:34.463Z,65.11
2018-09-21T06:17:34.646Z,65.75
2018-09-21T06:18:34.827Z,65.11
2018-09-21T06:19:35.026Z,64.56
2018-09-21T06:20:35.214Z,63.89
2018-09-21T06:21:35.391Z,64.01
2018-09-21T06:22:44.850Z,63.24
2018-09-21T06:23:35.753Z,62.66
2018-09-21T06:24:35.945Z,62.66
2018-09-21T06:25:36.127Z,62.57
2018-09-21T06:26:36.299Z,61.44
2018-09-21T06:27:36.480Z,61.08
2018-09-21T06:28:36.682Z,60.24
2018-09-21T06:29:36.867Z,60.05
2018-09-21T06:30:37.052Z,59.98
2018-09-21T06:31:37.233Z,58.34
2018-09-21T06:32:37.417Z,59.66
2018-09-21T06:33:37.605Z,59.56
2018-09-21T06:34:37.784Z,59.73
2018-09-21T06:35:37.968Z,60.69
2018-09-21T06:36:38.154Z,60.14
2018-09-21T06:37:38.345Z,58.92
2018-09-21T06:38:38.524Z,59.11
2018-09-21T06:39:38.719Z,59.18
2018-09-21T06:40:38.895Z,58.63
2018-09-21T06:41:39.079Z,58.53
2018-09-21T06:42:39.266Z,57.50
2018-09-21T06:43:39.469Z,57.59
2018-09-21T06:44:39.640Z,57.66
2018-09-21T06:45:39.840Z,57.59
2018-09-21T06:46:40.011Z,57.50
2018-09-21T06:47:40.198Z,56.87
2018-09-21T06:48:40.385Z,56.49
2018-09-21T06:49:40.621Z,55.22
2018-09-21T06:50:40.755Z,54.86
2018-09-21T06:51:40.938Z,54.86
2018-09-21T06:52:41.122Z,54.60
2018-09-21T06:53:41.310Z,53.70
2018-09-21T06:54:41.503Z,54.48
2018-09-21T06:55:41.705Z,54.77
2018-09-21T06:56:41.891Z,54.48
2018-09-21T06:57:42.076Z,54.67
2018-09-21T06:58:42.259Z,54.58
2018-09-21T06:59:42.450Z,54.11
2018-09-21T07:00:42.637Z,53.89
2018-09-21T07:01:42.864Z,53.80
2018-09-21T07:02:43.001Z,53.61
2018-09-21T07:03:43.172Z,52.66
2018-09-21T07:04:43.362Z,53.05
2018-09-21T07:05:43.569Z,52.88
2018-09-21T07:06:43.727Z,53.44
2018-09-21T07:07:43.984Z,53.05
2018-09-21T07:08:44.076Z,53.61
2018-09-21T07:09:44.291Z,53.41
2018-09-21T07:10:44.424Z,54.19
2018-09-21T07:11:44.602Z,53.12
2018-09-21T07:12:44.784Z,53.63
2018-09-21T07:13:44.973Z,53.63
2018-09-21T07:14:45.138Z,53.89
2018-09-21T07:15:45.376Z,53.63
2018-09-21T07:16:45.509Z,53.99
2018-09-21T07:17:45.697Z,53.70
2018-09-21T07:18:45.888Z,54.02
2018-09-21T07:19:46.069Z,53.80
2018-09-21T07:20:46.272Z,54.67
2018-09-21T07:21:46.457Z,54.94
2018-09-21T07:22:46.646Z,54.96
2018-09-21T07:23:46.814Z,55.52
2018-09-21T07:24:47.015Z,55.81
2018-09-21T07:25:47.199Z,56.49
2018-09-21T07:26:47.384Z,56.59
2018-09-21T07:27:47.573Z,56.49
2018-09-21T07:28:47.769Z,57.04
2018-09-21T07:29:47.959Z,57.59
2018-09-21T07:30:48.166Z,58.56
2018-09-21T07:31:48.337Z,58.75
2018-09-21T07:32:48.532Z,59.40
2018-09-21T07:33:48.777Z,59.31
2018-09-21T07:34:48.918Z,59.59
2018-09-21T07:35:49.095Z,59.59
2018-09-21T07:36:49.271Z,60.27
2018-09-21T07:37:49.455Z,60.08
2018-09-21T07:38:49.639Z,59.33
2018-09-21T07:39:49.844Z,58.88
2018-09-21T07:40:50.027Z,58.01
2018-09-21T07:41:50.240Z,57.17
2018-09-21T07:42:50.479Z,56.51
2018-09-21T07:43:50.620Z,55.38
2018-09-21T07:44:50.805Z,55.08
2018-09-21T07:45:50.970Z,54.99
2018-09-21T07:46:51.147Z,54.14
2018-09-21T07:47:51.333Z,53.47
2018-09-21T07:48:51.586Z,53.69
2018-09-21T07:49:51.714Z,53.39
2018-09-21T07:50:51.911Z,52.52
2018-09-21T07:51:52.087Z,52.45
2018-09-21T07:52:52.274Z,51.89
2018-09-21T07:53:52.457Z,51.60
2018-09-21T07:54:52.670Z,51.21
2018-09-21T07:55:52.858Z,50.82
2018-09-21T07:56:53.042Z,50.63
2018-09-21T07:57:53.226Z,50.51
2018-09-21T07:58:53.410Z,51.28
2018-09-21T07:59:53.595Z,51.48
2018-09-21T08:00:53.783Z,52.13
2018-09-21T08:01:53.970Z,52.52
2018-09-21T08:02:54.150Z,52.59
2018-09-21T08:03:54.341Z,53.24
2018-09-21T08:04:54.525Z,53.53
2018-09-21T08:05:54.717Z,54.48
2018-09-21T08:06:54.897Z,55.06
2018-09-21T08:07:55.080Z,55.32
2018-09-21T08:08:55.268Z,55.52
2018-09-21T08:09:55.456Z,55.52
2018-09-21T08:10:55.647Z,56.10
2018-09-21T08:11:55.831Z,56.39
2018-09-21T08:12:56.029Z,56.65
2018-09-21T08:13:56.188Z,57.23
2018-09-21T08:14:56.373Z,57.14
2018-09-21T08:15:56.566Z,57.43
2018-09-21T08:16:56.744Z,57.43
2018-09-21T08:17:56.929Z,57.43
2018-09-21T08:18:57.117Z,57.14
2018-09-21T08:19:57.302Z,57.53
2018-09-21T08:20:57.484Z,57.33
2018-09-21T08:21:57.680Z,57.53
2018-09-21T08:22:57.886Z,57.53
2018-09-21T08:23:58.046Z,57.53
2018-09-21T08:24:58.286Z,57.71
2018-09-21T08:25:58.396Z,57.53
2018-09-21T08:26:58.589Z,57.04
2018-09-21T08:27:58.769Z,57.62
2018-09-21T08:28:58.937Z,57.62
2018-09-21T08:29:59.124Z,57.23
2018-09-21T08:30:59.303Z,57.62
2018-09-21T08:31:59.499Z,57.62
2018-09-21T08:32:59.705Z,57.81
2018-09-21T08:33:59.860Z,58.01
2018-09-21T08:35:00.044Z,58.01
2018-09-21T08:36:00.229Z,57.71
2018-09-21T08:37:00.426Z,57.81
2018-09-21T08:38:00.603Z,58.20
2018-09-21T08:39:00.788Z,58.07
2018-09-21T08:40:00.976Z,57.81
2018-09-21T08:41:01.157Z,58.20
2018-09-21T08:42:01.339Z,58.20
2018-09-21T08:43:01.529Z,58.01
2018-09-21T08:44:01.761Z,57.98
2018-09-21T08:45:01.885Z,58.01
2018-09-21T08:46:02.061Z,58.01
2018-09-21T08:47:02.266Z,57.69
2018-09-21T08:48:02.439Z,57.91
2018-09-21T08:49:02.616Z,57.62
2018-09-21T08:50:02.791Z,57.62
2018-09-21T08:51:02.993Z,57.43
2018-09-21T08:52:03.172Z,57.62
2018-09-21T08:53:03.361Z,57.62
2018-09-21T08:54:03.538Z,57.53
2018-09-21T08:55:03.756Z,57.62
2018-09-21T08:56:03.901Z,57.53
2018-09-21T08:57:04.076Z,57.81
2018-09-21T08:58:04.263Z,57.62
2018-09-21T08:59:04.443Z,57.33
2018-09-21T09:00:04.638Z,57.14
2018-09-21T09:01:04.819Z,57.33
2018-09-21T09:02:05.009Z,57.23
2018-09-21T09:03:05.305Z,57.23
2018-09-21T09:04:05.380Z,57.71
2018-09-21T09:05:05.551Z,57.43
2018-09-21T09:06:05.725Z,57.62
2018-09-21T09:07:05.910Z,57.81
2018-09-21T09:08:06.098Z,58.01
2018-09-21T09:09:06.274Z,58.20
2018-09-21T09:10:06.482Z,58.11
2018-09-21T09:11:06.672Z,58.30
2018-09-21T09:12:06.855Z,58.39
2018-09-21T09:13:07.039Z,58.37
2018-09-21T09:14:07.211Z,58.49
2018-09-21T09:15:07.412Z,58.47
2018-09-21T09:16:07.584Z,59.05
2018-09-21T09:17:07.769Z,59.17
2018-09-21T09:18:07.954Z,59.23
2018-09-21T09:19:08.143Z,59.07
2018-09-21T09:20:08.325Z,59.17
2018-09-21T09:21:08.519Z,58.39
2018-09-21T09:22:08.697Z,58.30
2018-09-21T09:23:08.935Z,58.59
2018-09-21T09:24:09.070Z,58.59
2018-09-21T09:25:09.246Z,58.42
2018-09-21T09:26:09.443Z,57.65
2018-09-21T09:27:09.628Z,58.04
2018-09-21T09:28:09.828Z,57.65
2018-09-21T09:29:09.983Z,57.65
2018-09-21T09:30:10.273Z,57.84
2018-09-21T09:31:10.356Z,58.23
2018-09-21T09:32:10.539Z,58.59
2018-09-21T09:33:10.729Z,58.39
2018-09-21T09:34:10.908Z,59.30
2018-09-21T09:35:11.101Z,59.07
2018-09-21T09:36:11.286Z,58.39
2018-09-21T09:37:11.468Z,58.78
2018-09-21T09:38:11.667Z,59.07
2018-09-21T09:39:11.827Z,59.17
2018-09-21T09:40:12.011Z,59.27
2018-09-21T09:41:12.201Z,59.36
2018-09-21T09:42:12.381Z,59.46
2018-09-21T09:44:12.748Z,59.36
2018-09-21T09:45:12.918Z,59.20
2018-09-21T09:46:13.097Z,59.20
2018-09-21T09:47:13.287Z,58.62
2018-09-21T09:48:13.569Z,57.97
2018-09-21T09:49:13.665Z,57.68
2018-09-21T09:50:13.925Z,57.58
2018-09-21T09:51:13.975Z,57.39
2018-09-21T09:52:14.156Z,57.09
2018-09-21T09:53:14.340Z,57.09
2018-09-21T09:54:14.524Z,56.35
2018-09-21T09:55:14.706Z,56.05
2018-09-21T09:56:14.892Z,56.67
2018-09-21T09:57:15.077Z,55.60
2018-09-21T09:58:15.278Z,55.41
2018-09-21T09:59:15.454Z,55.21
2018-09-21T10:00:15.652Z,55.57
2018-09-21T10:01:15.829Z,55.21
2018-09-21T10:02:16.005Z,55.11
2018-09-21T10:03:16.233Z,55.47
2018-09-21T10:04:16.401Z,55.47
2018-09-21T10:05:16.588Z,55.18
2018-09-21T10:06:16.775Z,55.50
2018-09-21T10:07:16.962Z,55.28
2018-09-21T10:08:17.145Z,54.90
2018-09-21T10:09:17.333Z,54.99
2018-09-21T10:10:17.535Z,54.99
2018-09-21T10:11:17.701Z,54.58
2018-09-21T10:12:17.889Z,54.58
2018-09-21T10:13:18.093Z,54.38
2018-09-21T10:14:18.260Z,55.16
2018-09-21T10:15:18.452Z,55.54
2018-09-21T10:16:18.647Z,54.48
2018-09-21T10:17:18.812Z,54.45
2018-09-21T10:18:18.986Z,54.55
2018-09-21T10:19:19.175Z,54.74
2018-09-21T10:20:19.360Z,55.42
2018-09-21T10:21:19.540Z,54.94
2018-09-21T10:22:19.740Z,55.20
2018-09-21T10:23:19.901Z,55.20
2018-09-21T10:24:20.112Z,55.40
2018-09-21T10:25:20.278Z,55.10
2018-09-21T10:26:20.464Z,54.81
2018-09-21T10:27:20.904Z,55.10
2018-09-21T10:28:20.985Z,55.32
2018-09-21T10:29:21.058Z,55.20
2018-09-21T10:30:21.227Z,55.22
2018-09-21T10:31:21.414Z,55.71
2018-09-21T10:32:21.585Z,55.22
2018-09-21T10:33:21.848Z,55.81
2018-09-21T10:34:21.972Z,55.10
2018-09-21T10:35:22.214Z,54.45
2018-09-21T10:36:22.342Z,54.55
2018-09-21T10:37:22.563Z,53.80
2018-09-21T10:38:22.709Z,53.51
2018-09-21T10:39:22.977Z,53.02
2018-09-21T10:40:23.165Z,53.02
2018-09-21T10:41:23.257Z,53.70
2018-09-21T10:42:23.499Z,53.58
2018-09-21T10:43:23.630Z,53.49
2018-09-21T10:44:23.812Z,54.74
2018-09-21T10:45:24.002Z,54.64
2018-09-21T10:46:24.176Z,54.52
2018-09-21T10:47:24.365Z,54.71
2018-09-21T10:48:24.546Z,54.62
2018-09-21T10:49:24.733Z,54.52
2018-09-21T10:50:24.918Z,54.71
2018-09-21T10:51:25.107Z,54.62
2018-09-21T10:52:25.297Z,54.33
2018-09-21T10:53:25.477Z,54.43
2018-09-21T10:54:25.682Z,54.91
2018-09-21T10:55:25.857Z,55.00
2018-09-21T10:56:26.041Z,55.76
2018-09-21T10:57:26.237Z,56.14
2018-09-21T10:58:26.462Z,56.24
2018-09-21T10:59:26.608Z,56.04
2018-09-21T11:00:26.776Z,56.14
2018-09-21T11:01:26.950Z,56.14
2018-09-21T11:02:27.133Z,56.43
2018-09-21T11:03:27.341Z,55.76
2018-09-21T11:04:27.490Z,56.62
2018-09-21T11:05:27.672Z,56.24
2018-09-21T11:06:27.854Z,55.76
2018-09-21T11:07:28.039Z,56.14
2018-09-21T11:08:28.222Z,55.46
2018-09-21T11:09:28.414Z,55.85
2018-09-21T11:10:28.603Z,56.34
2018-09-21T11:11:28.766Z,56.24
2018-09-21T11:12:28.977Z,56.52
2018-09-21T11:13:29.136Z,57.01
2018-09-21T11:14:29.321Z,57.30
2018-09-21T11:15:29.495Z,57.59
2018-09-21T11:16:29.685Z,57.50
2018-09-21T11:17:29.874Z,57.69
2018-09-21T11:18:30.038Z,57.95
2018-09-21T11:19:30.217Z,58.14
2018-09-21T11:20:30.401Z,58.34
2018-09-21T11:21:30.586Z,58.44
2018-09-21T11:22:30.769Z,59.01
2018-09-21T11:23:30.950Z,59.01
2018-09-21T11:24:31.137Z,59.01
2018-09-21T11:25:31.321Z,58.53
2018-09-21T11:26:31.510Z,58.53
2018-09-21T11:27:31.686Z,58.44
2018-09-21T11:28:31.866Z,58.27
2018-09-21T11:29:32.054Z,57.95
2018-09-21T11:30:32.244Z,57.88
2018-09-21T11:31:32.431Z,57.46
2018-09-21T11:32:32.602Z,57.59
2018-09-21T11:33:32.786Z,56.92
2018-09-21T11:34:32.958Z,56.82
2018-09-21T11:35:33.143Z,56.72
2018-09-21T11:36:33.366Z,56.26
2018-09-21T11:37:33.504Z,55.78
2018-09-21T11:38:33.673Z,54.91
2018-09-21T11:39:33.884Z,54.62
2018-09-21T11:40:34.066Z,54.91
2018-09-21T11:41:34.236Z,55.20
2018-09-21T11:42:34.416Z,54.91
2018-09-21T11:43:34.603Z,55.20
2018-09-21T11:44:34.785Z,54.81
2018-09-21T11:45:34.973Z,54.43
2018-09-21T11:46:35.174Z,53.94
2018-09-21T11:47:35.457Z,53.81
2018-09-21T11:48:35.524Z,54.69
2018-09-21T11:49:35.721Z,54.21
2018-09-21T11:50:35.899Z,54.30
2018-09-21T11:51:36.068Z,54.59
2018-09-21T11:52:36.244Z,54.59
2018-09-21T11:53:36.426Z,54.21
2018-09-21T11:54:36.610Z,54.39
2018-09-21T11:55:36.793Z,54.59
2018-09-21T11:56:36.986Z,54.69
2018-09-21T11:57:37.161Z,54.57
2018-09-21T11:58:37.348Z,54.39
2018-09-21T11:59:37.527Z,54.79
2018-09-21T12:00:37.707Z,54.88
2018-09-21T12:01:37.894Z,55.17
2018-09-21T12:02:38.074Z,55.73
2018-09-21T12:03:38.278Z,56.50
2018-09-21T12:04:38.450Z,55.15
2018-09-21T12:05:38.641Z,54.66
2018-09-21T12:06:38.826Z,54.95
2018-09-21T12:07:39.006Z,55.43
2018-09-21T12:08:39.192Z,55.24
2018-09-21T12:09:39.381Z,54.85
2018-09-21T12:10:39.661Z,54.85
2018-09-21T12:11:39.742Z,54.66
2018-09-21T12:12:39.928Z,54.49
2018-09-21T12:13:40.140Z,54.69
2018-09-21T12:14:40.323Z,54.39
2018-09-21T12:15:40.500Z,54.01
2018-09-21T12:16:40.690Z,53.81
2018-09-21T12:18:41.056Z,53.53
2018-09-21T12:19:41.245Z,53.81
2018-09-21T12:20:41.425Z,53.91
2018-09-21T12:21:41.753Z,53.72
2018-09-21T12:22:41.881Z,53.81
2018-09-21T12:23:41.968Z,53.81
2018-09-21T12:24:42.154Z,53.53
2018-09-21T12:25:42.336Z,53.81
2018-09-21T12:26:42.519Z,53.91
2018-09-21T12:27:42.836Z,53.72
2018-09-21T12:28:43.998Z,52.58
2018-09-21T12:29:43.153Z,53.04
2018-09-21T12:30:43.331Z,53.07
2018-09-21T12:31:43.516Z,52.95
2018-09-21T12:32:43.730Z,53.04
2018-09-21T12:33:43.871Z,52.66
2018-09-21T12:35:44.222Z,53.23
2018-09-21T12:36:44.482Z,53.53
2018-09-21T12:37:44.601Z,53.63
2018-09-21T12:38:44.793Z,53.69
2018-09-21T12:39:44.945Z,54.08
2018-09-21T12:40:45.136Z,53.41
2018-09-21T12:41:45.330Z,53.69
2018-09-21T12:42:45.529Z,53.99
2018-09-21T12:43:45.679Z,54.08
2018-09-21T12:44:45.926Z,54.37
2018-09-21T12:45:46.048Z,54.25
2018-09-21T12:46:46.229Z,54.17
2018-09-21T12:47:46.413Z,54.37
2018-09-21T12:48:46.600Z,54.37
2018-09-21T12:49:46.788Z,55.43
2018-09-21T12:50:47.083Z,55.63
2018-09-21T12:51:47.188Z,56.40
2018-09-21T12:52:47.338Z,57.63
2018-09-21T12:53:47.632Z,59.83
2018-09-21T12:54:47.680Z,63.56
2018-09-21T12:55:47.845Z,67.97
2018-09-21T12:56:48.042Z,71.28
2018-09-21T12:57:48.815Z,74.14
2018-09-21T12:58:48.544Z,77.00
2018-09-21T12:59:48.624Z,78.25